createdAt,value
2018-12-19T00:00:03.492Z,32.40
2018-12-19T00:02:35.030Z,30.32
2018-12-19T00:05:07.070Z,30.52
2018-12-19T00:07:39.148Z,33.75
2018-12-19T00:10:11.349Z,32.17
2018-12-19T00:12:42.549Z,31.50
2018-12-19T00:15:14.369Z,30.17
2018-12-19T00:17:46.409Z,33.08
2018-12-19T00:20:19.430Z,32.05
2018-12-19T00:22:51.953Z,31.27
2018-12-19T00:25:23.929Z,32.28
2018-12-19T00:27:55.311Z,31.20
2018-12-19T00:30:26.850Z,32.17
2018-12-19T00:32:58.890Z,30.35
2018-12-19T00:35:31.231Z,30.40
2018-12-19T00:38:03.309Z,29.70
2018-12-19T00:40:35.768Z,25.72
2018-12-19T00:43:07.810Z,28.98
2018-12-19T00:45:40.970Z,31.07
2018-12-19T00:48:12.608Z,27.95
2018-12-19T00:50:45.012Z,31.40
2018-12-19T00:53:17.570Z,32.00
2018-12-19T00:55:49.570Z,27.40
2018-12-19T00:58:21.349Z,28.92
2018-12-19T01:00:53.450Z,30.32
2018-12-19T01:03:26.109Z,30.00
2018-12-19T01:05:57.668Z,30.50
2018-12-19T01:08:29.600Z,30.05
2018-12-19T01:11:01.909Z,30.32
2018-12-19T01:13:33.412Z,29.00
2018-12-19T01:16:05.634Z,28.77
2018-12-19T01:18:37.210Z,26.57
2018-12-19T01:21:09.310Z,27.40
2018-12-19T01:23:40.831Z,30.00
2018-12-19T01:26:13.070Z,28.23
2018-12-19T01:28:44.670Z,29.15
2018-12-19T01:31:16.910Z,28.60
2018-12-19T01:33:48.530Z,29.92
2018-12-19T01:36:21.410Z,28.35
2018-12-19T01:38:52.969Z,28.75
2018-12-19T01:41:26.011Z,30.85
2018-12-19T01:43:58.031Z,25.92
2018-12-19T01:46:30.573Z,26.48
2018-12-19T01:49:02.010Z,25.82
2018-12-19T01:51:33.950Z,28.50
2018-12-19T01:54:05.511Z,30.25
2018-12-19T01:56:38.329Z,28.55
2018-12-19T01:59:09.730Z,29.57
2018-12-19T02:01:42.550Z,31.27
2018-12-19T02:04:14.349Z,31.15
2018-12-19T02:06:46.431Z,30.20
2018-12-19T02:09:17.631Z,29.90
2018-12-19T02:11:49.450Z,30.70
2018-12-19T02:14:20.729Z,28.30
2018-12-19T02:16:52.671Z,31.27
2018-12-19T02:19:24.590Z,33.63
2018-12-19T02:21:57.211Z,33.20
2018-12-19T02:24:29.410Z,33.65
2018-12-19T02:27:02.410Z,30.55
2018-12-19T02:29:34.632Z,30.60
2018-12-19T02:32:10.070Z,29.82
2018-12-19T02:34:41.629Z,29.80
2018-12-19T02:37:13.970Z,29.63
2018-12-19T02:39:45.710Z,25.30
2018-12-19T02:42:17.012Z,23.73
2018-12-19T02:44:48.773Z,22.52
2018-12-19T02:47:20.931Z,22.87
2018-12-19T02:49:52.589Z,21.57
2018-12-19T02:52:24.249Z,22.50
2018-12-19T02:54:56.451Z,20.57
2018-12-19T02:57:28.373Z,21.80
2018-12-19T03:00:00.470Z,23.12
2018-12-19T03:02:32.610Z,20.62
2018-12-19T03:05:04.229Z,21.52
2018-12-19T03:07:36.190Z,19.65
2018-12-19T03:10:08.689Z,22.35
2018-12-19T03:12:40.611Z,19.30
2018-12-19T03:15:12.729Z,20.72
2018-12-19T03:17:44.789Z,24.65
2018-12-19T03:20:16.350Z,25.62
2018-12-19T03:22:48.569Z,24.40
2018-12-19T03:25:20.510Z,22.00
2018-12-19T03:27:52.935Z,25.52
2018-12-19T03:30:25.516Z,24.18
2018-12-19T03:32:57.630Z,22.55
2018-12-19T03:35:29.448Z,18.70
2018-12-19T03:38:01.549Z,17.10
2018-12-19T03:40:33.489Z,16.12
2018-12-19T03:43:05.569Z,17.75
2018-12-19T03:45:37.751Z,17.37
2018-12-19T03:48:11.508Z,17.98
2018-12-19T03:50:43.008Z,21.85
2018-12-19T03:53:15.009Z,18.40
2018-12-19T03:55:47.229Z,20.37
2018-12-19T03:58:19.249Z,25.02
2018-12-19T04:00:50.548Z,25.62
2018-12-19T04:03:22.489Z,25.72
2018-12-19T04:05:54.892Z,27.60
2018-12-19T04:08:26.909Z,31.12
2018-12-19T04:10:59.689Z,30.20
2018-12-19T04:13:30.529Z,24.10
2018-12-19T04:16:04.289Z,26.37
2018-12-19T04:18:35.917Z,28.10
2018-12-19T04:21:07.949Z,26.60
2018-12-19T04:23:39.669Z,27.22
2018-12-19T04:26:11.293Z,26.33
2018-12-19T04:28:42.490Z,24.37
2018-12-19T04:31:15.212Z,24.55
2018-12-19T04:33:46.630Z,15.43
2018-12-19T04:36:19.070Z,10.53
2018-12-19T04:38:51.012Z,10.90
2018-12-19T04:41:23.391Z,11.40
2018-12-19T04:43:55.169Z,10.95
2018-12-19T04:46:27.030Z,13.05
2018-12-19T04:48:59.032Z,12.50
2018-12-19T04:51:31.169Z,11.75
2018-12-19T04:54:03.611Z,9.73
2018-12-19T04:56:35.632Z,9.05
2018-12-19T04:59:06.752Z,11.83
2018-12-19T05:01:38.790Z,11.22
2018-12-19T05:04:10.191Z,13.03
2018-12-19T05:06:42.111Z,10.95
2018-12-19T05:09:14.350Z,10.43
2018-12-19T05:11:45.729Z,11.85
2018-12-19T05:14:17.992Z,14.40
2018-12-19T05:16:49.720Z,11.90
2018-12-19T05:19:21.470Z,12.80
2018-12-19T05:21:53.269Z,12.13
2018-12-19T05:24:25.289Z,13.58
2018-12-19T05:26:56.890Z,12.98
2018-12-19T05:29:28.990Z,13.32
2018-12-19T05:32:00.992Z,15.58
2018-12-19T05:34:33.610Z,22.25
2018-12-19T05:37:04.791Z,25.77
2018-12-19T05:39:36.090Z,23.02
2018-12-19T05:42:07.750Z,25.45
2018-12-19T05:44:40.490Z,19.55
2018-12-19T05:47:13.115Z,18.98
2018-12-19T05:49:45.450Z,16.07
2018-12-19T05:52:17.431Z,15.05
2018-12-19T05:54:49.251Z,17.65
2018-12-19T05:57:21.473Z,16.30
2018-12-19T05:59:53.131Z,17.05
2018-12-19T06:02:25.870Z,16.80
2018-12-19T06:04:57.851Z,15.90
2018-12-19T06:07:30.112Z,16.70
2018-12-19T06:10:01.390Z,16.02
2018-12-19T06:12:33.973Z,18.23
2018-12-19T06:15:05.791Z,16.75
2018-12-19T06:17:38.211Z,15.78
2018-12-19T06:20:10.111Z,16.50
2018-12-19T06:22:41.811Z,16.85
2018-12-19T06:25:14.436Z,15.40
2018-12-19T06:27:45.951Z,15.15
2018-12-19T06:30:18.111Z,15.03
2018-12-19T06:32:50.271Z,15.20
2018-12-19T06:35:22.692Z,17.00
2018-12-19T06:37:55.393Z,16.32
2018-12-19T06:40:32.621Z,16.30
2018-12-19T06:43:02.371Z,18.10
2018-12-19T06:45:34.549Z,18.87
2018-12-19T06:48:06.490Z,20.02
2018-12-19T06:50:38.192Z,28.55
2018-12-19T06:53:10.090Z,24.72
2018-12-19T06:55:41.892Z,22.80
2018-12-19T06:58:13.931Z,23.15
2018-12-19T07:00:45.591Z,24.55
2018-12-19T07:03:17.270Z,24.67
2018-12-19T07:05:49.632Z,27.70
2018-12-19T07:08:21.590Z,24.72
2018-12-19T07:10:53.891Z,22.73
2018-12-19T07:13:25.851Z,23.07
2018-12-19T07:15:57.193Z,23.77
2018-12-19T07:18:29.610Z,27.02
2018-12-19T07:21:01.830Z,28.47
2018-12-19T07:23:34.911Z,23.87
2018-12-19T07:26:06.571Z,25.05
2018-12-19T07:28:38.331Z,26.42
2018-12-19T07:31:10.691Z,22.87
2018-12-19T07:33:43.160Z,20.35
2018-12-19T07:36:15.630Z,18.70
2018-12-19T07:38:47.970Z,21.55
2018-12-19T07:41:19.752Z,27.82
2018-12-19T07:43:51.931Z,19.77
2018-12-19T07:46:24.402Z,25.15
2018-12-19T07:48:57.472Z,15.43
2018-12-19T07:51:28.994Z,11.18
2018-12-19T07:54:01.190Z,10.85
2018-12-19T07:56:33.651Z,8.55
2018-12-19T07:59:06.530Z,9.88
2018-12-19T08:01:38.830Z,10.88
2018-12-19T08:04:10.952Z,11.15
2018-12-19T08:06:41.670Z,10.80
2018-12-19T08:09:13.951Z,13.05
2018-12-19T08:11:45.571Z,14.25
2018-12-19T08:14:18.073Z,13.85
2018-12-19T08:16:49.752Z,14.30
2018-12-19T08:19:21.771Z,13.88
2018-12-19T08:21:54.037Z,17.95
2018-12-19T08:24:26.273Z,17.45
2018-12-19T08:26:58.188Z,17.07
2018-12-19T08:29:31.427Z,20.72
2018-12-19T08:32:04.990Z,21.65
2018-12-19T08:34:36.926Z,21.05
2018-12-19T08:37:08.906Z,20.00
2018-12-19T08:39:41.428Z,28.55
2018-12-19T08:42:13.946Z,23.70
2018-12-19T08:44:45.862Z,23.32
2018-12-19T08:47:17.579Z,23.52
2018-12-19T08:49:49.621Z,20.40
2018-12-19T08:52:21.642Z,23.47
2018-12-19T08:54:54.241Z,25.70
2018-12-19T08:57:26.550Z,17.70
2018-12-19T08:59:59.900Z,17.30
2018-12-19T09:02:31.971Z,14.03
2018-12-19T09:05:03.129Z,11.25
2018-12-19T09:07:35.465Z,10.72
2018-12-19T09:10:07.666Z,8.35
2018-12-19T09:12:40.027Z,8.78
2018-12-19T09:15:12.567Z,8.78
2018-12-19T09:17:44.824Z,13.05
2018-12-19T09:20:17.305Z,17.73
2018-12-19T09:22:48.765Z,14.68
2018-12-19T09:25:21.424Z,14.40
2018-12-19T09:27:53.225Z,13.78
2018-12-19T09:30:25.306Z,16.42
2018-12-19T09:32:57.005Z,14.73
2018-12-19T09:35:27.385Z,11.60
2018-12-19T09:37:57.386Z,13.22
2018-12-19T09:40:27.490Z,7.90
2018-12-19T09:42:58.703Z,9.10
2018-12-19T09:45:28.585Z,9.18
2018-12-19T09:47:58.903Z,8.78
2018-12-19T09:50:30.524Z,12.75
2018-12-19T09:53:02.765Z,14.15
2018-12-19T09:55:34.722Z,14.55
2018-12-19T09:58:07.446Z,23.12
2018-12-19T10:00:39.743Z,13.40
2018-12-19T10:03:12.303Z,16.55
2018-12-19T10:05:43.563Z,16.85
2018-12-19T10:08:15.900Z,15.30
2018-12-19T10:10:48.521Z,15.58
2018-12-19T10:13:21.202Z,16.17
2018-12-19T10:15:53.150Z,22.52
2018-12-19T10:18:25.581Z,17.82
2018-12-19T10:20:57.303Z,12.98
2018-12-19T10:23:30.241Z,16.20
2018-12-19T10:26:05.701Z,19.23
2018-12-19T10:28:38.123Z,14.90
2018-12-19T10:31:10.021Z,16.73
2018-12-19T10:33:41.962Z,18.35
2018-12-19T10:36:14.743Z,15.75
2018-12-19T10:38:46.361Z,19.70
2018-12-19T10:41:18.541Z,19.70
2018-12-19T10:43:50.592Z,18.98
2018-12-19T10:46:22.273Z,20.05
2018-12-19T10:48:55.453Z,13.00
2018-12-19T10:51:27.253Z,16.10
2018-12-19T10:53:59.770Z,13.28
2018-12-19T10:56:30.638Z,14.25
2018-12-19T10:59:03.011Z,10.93
2018-12-19T11:01:34.931Z,20.27
2018-12-19T11:04:06.839Z,22.37
2018-12-19T11:06:38.651Z,16.55
2018-12-19T11:09:11.150Z,19.32
2018-12-19T11:11:42.810Z,21.90
2018-12-19T11:14:14.711Z,16.62
2018-12-19T11:16:45.790Z,16.97
2018-12-19T11:19:18.114Z,14.28
2018-12-19T11:21:51.196Z,15.32
2018-12-19T11:24:26.964Z,16.20
2018-12-19T11:26:57.630Z,13.78
2018-12-19T11:29:29.457Z,14.15
2018-12-19T11:32:01.880Z,17.23
2018-12-19T11:34:33.872Z,18.10
2018-12-19T11:37:05.886Z,15.50
2018-12-19T11:39:38.593Z,19.62
2018-12-19T11:42:09.500Z,18.85
2018-12-19T11:44:40.663Z,19.70
2018-12-19T11:47:12.483Z,18.55
2018-12-19T11:49:44.527Z,19.00
2018-12-19T11:52:15.723Z,18.37
2018-12-19T11:54:48.204Z,17.27
2018-12-19T11:57:20.044Z,17.10
2018-12-19T11:59:52.383Z,16.70
2018-12-19T12:02:23.985Z,17.85
2018-12-19T12:04:55.794Z,19.17
2018-12-19T12:07:28.284Z,16.70
2018-12-19T12:09:59.916Z,17.75
2018-12-19T12:12:30.442Z,21.00
2018-12-19T12:15:01.607Z,16.82
2018-12-19T12:17:32.718Z,15.30
2018-12-19T12:20:04.848Z,14.38
2018-12-19T12:22:36.189Z,12.33
2018-12-19T12:25:08.488Z,14.80
2018-12-19T12:27:40.167Z,14.30
2018-12-19T12:30:11.967Z,13.43
2018-12-19T12:32:44.548Z,14.75
2018-12-19T12:35:16.108Z,18.12
2018-12-19T12:37:47.789Z,12.65
2018-12-19T12:40:18.657Z,17.30
2018-12-19T12:42:49.600Z,17.30
2018-12-19T12:45:22.437Z,17.62
2018-12-19T12:47:53.698Z,17.32
2018-12-19T12:50:25.562Z,17.82
2018-12-19T12:52:56.938Z,17.20
2018-12-19T12:55:29.458Z,18.92
2018-12-19T12:58:01.077Z,15.45
2018-12-19T13:00:32.846Z,28.02
2018-12-19T13:03:04.619Z,16.15
2018-12-19T13:05:37.256Z,17.82
2018-12-19T13:08:08.781Z,19.10
2018-12-19T13:10:40.837Z,18.67
2018-12-19T13:13:12.179Z,17.20
2018-12-19T13:15:47.896Z,18.20
2018-12-19T13:18:19.518Z,18.45
2018-12-19T13:20:51.104Z,23.87
2018-12-19T13:23:22.965Z,26.62
2018-12-19T13:25:55.745Z,22.77
2018-12-19T13:28:27.525Z,25.85
2018-12-19T13:30:59.108Z,25.62
2018-12-19T13:33:31.045Z,27.75
2018-12-19T13:36:04.505Z,26.33
2018-12-19T13:38:34.865Z,27.85
2018-12-19T13:41:06.446Z,27.82
2018-12-19T13:43:38.669Z,27.55
2018-12-19T13:46:10.629Z,30.55
2018-12-19T13:48:42.033Z,29.87
2018-12-19T13:51:13.695Z,34.70
2018-12-19T13:53:45.396Z,28.83
2018-12-19T13:56:17.373Z,31.52
2018-12-19T13:58:49.273Z,30.25
2018-12-19T14:01:21.334Z,31.12
2018-12-19T14:03:52.870Z,28.98
2018-12-19T14:06:25.429Z,26.90
2018-12-19T14:08:56.870Z,62.75
2018-12-19T14:11:29.350Z,39.58
2018-12-19T14:14:01.393Z,33.02
2018-12-19T14:16:33.205Z,30.40
2018-12-19T14:19:05.144Z,35.75
2018-12-19T14:21:36.823Z,27.50
2018-12-19T14:24:12.581Z,30.90
2018-12-19T14:26:44.026Z,28.73
2018-12-19T14:29:16.106Z,29.77
2018-12-19T14:31:47.350Z,33.05
2018-12-19T14:34:20.100Z,27.75
2018-12-19T14:36:51.638Z,29.25
2018-12-19T14:39:23.959Z,27.93
2018-12-19T14:41:56.000Z,29.60
2018-12-19T14:44:28.618Z,32.48
2018-12-19T14:47:00.777Z,29.67
2018-12-19T14:49:32.756Z,31.75
2018-12-19T14:52:04.196Z,30.90
2018-12-19T14:54:36.417Z,34.03
2018-12-19T14:57:08.554Z,29.60
2018-12-19T14:59:40.335Z,31.23
2018-12-19T15:02:12.688Z,31.85
2018-12-19T15:04:44.690Z,28.32
2018-12-19T15:07:16.830Z,135.50
2018-12-19T15:09:48.813Z,26.00
2018-12-19T15:12:25.694Z,32.75
2018-12-19T15:14:55.414Z,30.30
2018-12-19T15:17:26.974Z,32.90
2018-12-19T15:19:59.014Z,30.40
2018-12-19T15:22:30.494Z,36.80
2018-12-19T15:25:03.034Z,28.42
2018-12-19T15:27:35.252Z,30.88
2018-12-19T15:30:07.021Z,27.37
2018-12-19T15:32:39.279Z,24.92
2018-12-19T15:35:12.112Z,33.00
2018-12-19T15:37:43.887Z,26.75
2018-12-19T15:40:15.482Z,28.75
2018-12-19T15:42:47.779Z,24.87
2018-12-19T15:45:18.926Z,25.25
2018-12-19T15:47:50.300Z,24.92
2018-12-19T15:50:22.087Z,27.82
2018-12-19T15:52:54.306Z,23.07
2018-12-19T15:55:26.817Z,27.58
2018-12-19T15:57:58.215Z,31.70
2018-12-19T16:00:29.916Z,29.37
2018-12-19T16:03:02.368Z,21.02
2018-12-19T16:05:33.073Z,19.73
2018-12-19T16:08:04.593Z,20.82
2018-12-19T16:10:36.530Z,24.85
2018-12-19T16:13:09.236Z,19.50
2018-12-19T16:15:40.379Z,23.80
2018-12-19T16:18:12.618Z,23.57
2018-12-19T16:20:44.398Z,20.77
2018-12-19T16:23:15.701Z,23.05
2018-12-19T16:25:47.266Z,16.87
2018-12-19T16:28:18.264Z,23.65
2018-12-19T16:30:49.657Z,20.48
2018-12-19T16:33:21.118Z,25.30
2018-12-19T16:35:52.652Z,21.65
2018-12-19T16:38:23.660Z,26.10
2018-12-19T16:40:56.061Z,29.65
2018-12-19T16:43:27.862Z,23.27
2018-12-19T16:45:59.722Z,27.37
2018-12-19T16:48:30.881Z,28.73
2018-12-19T16:51:04.122Z,24.05
2018-12-19T16:53:36.222Z,23.40
2018-12-19T16:56:09.266Z,28.52
2018-12-19T16:58:41.045Z,23.98
2018-12-19T17:01:13.740Z,28.65
2018-12-19T17:03:45.421Z,41.00
2018-12-19T17:06:17.402Z,36.28
2018-12-19T17:08:49.000Z,34.48
2018-12-19T17:11:22.122Z,33.05
2018-12-19T17:13:53.905Z,35.60
2018-12-19T17:16:26.141Z,31.77
2018-12-19T17:18:57.663Z,32.83
2018-12-19T17:21:30.143Z,33.33
2018-12-19T17:24:01.663Z,34.20
2018-12-19T17:26:33.522Z,24.85
2018-12-19T17:29:05.421Z,35.03
2018-12-19T17:31:37.202Z,32.73
2018-12-19T17:34:08.801Z,31.05
2018-12-19T17:36:40.621Z,32.40
2018-12-19T17:39:12.141Z,31.57
2018-12-19T17:41:44.021Z,32.45
2018-12-19T17:44:16.646Z,31.30
2018-12-19T17:46:48.982Z,31.15
2018-12-19T17:49:20.822Z,33.25
2018-12-19T17:51:52.992Z,35.92
2018-12-19T17:54:25.062Z,33.73
2018-12-19T17:56:57.162Z,38.83
2018-12-19T17:59:28.922Z,30.32
2018-12-19T18:02:02.421Z,34.10
2018-12-19T18:04:33.761Z,29.87
2018-12-19T18:07:06.642Z,35.17
2018-12-19T18:09:38.861Z,31.77
2018-12-19T18:12:11.002Z,34.63
2018-12-19T18:14:43.242Z,31.40
2018-12-19T18:17:15.504Z,26.93
2018-12-19T18:19:47.882Z,33.13
2018-12-19T18:22:20.403Z,27.85
2018-12-19T18:24:52.263Z,29.42
2018-12-19T18:27:25.285Z,29.55
2018-12-19T18:29:57.802Z,27.73
2018-12-19T18:32:30.263Z,26.17
2018-12-19T18:35:00.778Z,30.40
2018-12-19T18:37:33.447Z,27.32
2018-12-19T18:40:05.882Z,27.90
2018-12-19T18:42:37.722Z,28.62
2018-12-19T18:45:11.976Z,25.65
2018-12-19T18:47:44.082Z,33.02
2018-12-19T18:50:15.542Z,35.50
2018-12-19T18:52:47.304Z,33.28
2018-12-19T18:55:18.783Z,37.03
2018-12-19T18:57:51.164Z,41.90
2018-12-19T19:00:27.224Z,29.42
2018-12-19T19:02:59.150Z,33.10
2018-12-19T19:05:30.835Z,29.92
2018-12-19T19:08:03.207Z,42.60
2018-12-19T19:10:34.703Z,30.08
2018-12-19T19:13:06.765Z,35.83
2018-12-19T19:15:38.467Z,34.25
2018-12-19T19:18:10.623Z,35.23
2018-12-19T19:20:43.863Z,31.20
2018-12-19T19:23:15.187Z,31.68
2018-12-19T19:25:48.123Z,30.92
2018-12-19T19:28:20.086Z,29.75
2018-12-19T19:30:52.143Z,26.70
2018-12-19T19:33:24.943Z,32.50
2018-12-19T19:35:56.804Z,32.85
2018-12-19T19:38:28.564Z,32.93
2018-12-19T19:41:00.444Z,27.37
2018-12-19T19:43:32.324Z,26.07
2018-12-19T19:46:04.465Z,29.82
2018-12-19T19:48:36.344Z,26.80
2018-12-19T19:51:08.504Z,26.70
2018-12-19T19:53:40.563Z,28.15
2018-12-19T19:56:13.065Z,22.95
2018-12-19T19:58:44.925Z,22.25
2018-12-19T20:01:16.903Z,26.62
2018-12-19T20:03:48.847Z,22.27
2018-12-19T20:06:20.665Z,29.35
2018-12-19T20:08:52.825Z,28.50
2018-12-19T20:11:25.164Z,24.67
2018-12-19T20:13:56.723Z,25.20
2018-12-19T20:16:29.504Z,26.95
2018-12-19T20:19:01.823Z,32.70
2018-12-19T20:21:33.924Z,28.75
2018-12-19T20:24:06.124Z,23.38
2018-12-19T20:26:38.767Z,27.80
2018-12-19T20:29:10.901Z,29.35
2018-12-19T20:31:43.489Z,35.52
2018-12-19T20:34:16.304Z,24.12
2018-12-19T20:36:48.447Z,20.60
2018-12-19T20:39:20.307Z,19.92
2018-12-19T20:41:53.543Z,21.90
2018-12-19T20:44:25.767Z,20.40
2018-12-19T20:46:57.525Z,24.47
2018-12-19T20:49:29.544Z,20.48
2018-12-19T20:52:02.044Z,25.00
2018-12-19T20:54:33.637Z,27.87
2018-12-19T20:57:06.045Z,24.07
2018-12-19T20:59:38.095Z,27.52
2018-12-19T21:02:09.903Z,23.40
2018-12-19T21:04:41.508Z,41.98
2018-12-19T21:07:13.423Z,27.07
2018-12-19T21:09:45.484Z,25.92
2018-12-19T21:12:17.163Z,26.82
2018-12-19T21:14:48.943Z,27.67
2018-12-19T21:19:33.764Z,26.62
2018-12-19T21:22:08.283Z,27.25
2018-12-19T21:24:40.083Z,25.77
2018-12-19T21:27:11.764Z,22.98
2018-12-19T21:29:43.283Z,27.95
2018-12-19T21:32:15.243Z,32.53
2018-12-19T21:34:47.848Z,34.43
2018-12-19T21:37:20.944Z,32.53
2018-12-19T21:39:53.143Z,34.18
2018-12-19T21:42:25.385Z,35.73
2018-12-19T21:44:57.764Z,37.50
2018-12-19T21:47:29.966Z,34.58
2018-12-19T21:50:01.428Z,34.27
2018-12-19T21:52:33.939Z,34.80
2018-12-19T21:55:06.149Z,34.30
2018-12-19T21:57:38.679Z,33.75
2018-12-19T22:00:15.304Z,34.80
2018-12-19T22:02:48.210Z,35.68
2018-12-19T22:05:20.684Z,35.28
2018-12-19T22:07:52.996Z,35.03
2018-12-19T22:10:24.986Z,34.15
2018-12-19T22:12:57.282Z,33.90
2018-12-19T22:15:29.083Z,35.60
2018-12-19T22:18:05.970Z,34.88
2018-12-19T22:20:38.405Z,33.50
2018-12-19T22:23:10.761Z,34.65
2018-12-19T22:25:43.166Z,34.23
2018-12-19T22:28:15.327Z,28.75
2018-12-19T22:30:46.639Z,33.53
2018-12-19T22:33:18.115Z,31.82
2018-12-19T22:35:50.584Z,28.07
2018-12-19T22:38:22.516Z,38.75
2018-12-19T22:40:54.704Z,26.75
2018-12-19T22:43:27.853Z,32.75
2018-12-19T22:46:00.325Z,27.55
2018-12-19T22:48:32.644Z,27.77
2018-12-19T22:51:04.147Z,29.45
2018-12-19T22:53:36.744Z,26.27
2018-12-19T22:56:09.492Z,28.27
2018-12-19T22:58:41.463Z,27.45
2018-12-19T23:01:17.843Z,30.37
2018-12-19T23:03:53.996Z,24.43
2018-12-19T23:06:26.565Z,27.93
2018-12-19T23:08:59.426Z,30.80
2018-12-19T23:11:31.082Z,23.70
2018-12-19T23:14:02.295Z,22.77
2018-12-19T23:16:33.464Z,17.20
2018-12-19T23:19:05.809Z,10.98
2018-12-19T23:21:37.125Z,11.78
2018-12-19T23:24:09.503Z,12.40
2018-12-19T23:26:41.687Z,10.10
2018-12-19T23:29:15.047Z,14.47
2018-12-19T23:31:47.406Z,11.93
2018-12-19T23:34:20.666Z,11.38
2018-12-19T23:36:52.546Z,13.40
2018-12-19T23:39:24.081Z,14.78
2018-12-19T23:41:55.502Z,10.45
2018-12-19T23:44:33.222Z,14.25
2018-12-19T23:47:05.903Z,16.55
2018-12-19T23:49:37.304Z,13.93
2018-12-19T23:52:09.682Z,15.15
2018-12-19T23:54:41.143Z,17.45
2018-12-19T23:57:13.613Z,17.25
2018-12-19T23:59:45.447Z,16.07
